Strona główna
METAR-TAF:

METAR-TAF

Lotnisko :

Algier, Algieria

Port lotniczy Algier

Szerokość geograficzna: 36-43N, Długość geograficzna: 003-15E, wysokość: 25 m

Aktualna obserwacja pogody

Raport powstał 44 minut temu, godzina 11:00 UTC
Wiatr 2 kt z kierunków zmiennych
Temperatura 15°C
Wilgotność 67%
Ciśnienie 1024 hPa
Widzialność: 8000 m

METAR: DAAG 181100Z VRB02KT 8000 NSC 15/09 Q1024

czas: 12:44 (11:44 UTC)

Prognoza

Raport powstał 44 minut temu, godzina 11:00 UTC
Prognoza ważna od 18 godzina 12 UTC do 19 godzina 12 UTC
Wiatr 2 kt z kierunków zmiennych
Widzialność: 8000 m
Prawdopodobieństwo 30% :
Przejściowo
od 18 godzina 22 UTC do 19 godzina 04 UTC
Widzialność: 5000 m
Przerywane chmury na wysokości 1500 ft
zamglenie
Stopniowe zmiany
od 19 godzina 09 UTC do 19 godzina 12 UTC
Wiatr 10 kt od południowy zachód

TAF: DAAG 181100Z 1812/1912 VRB02KT 8000 NSC PROB30 TEMPO 1822/1904 5000 BR BKN015 BECMG 1909/1912 22010KT

Obserwacja i prognoza pogody dla ponad 4000 lotnisk (raport METAR i TAF).

Dostępne stacje oznaczono żółtymi i czerwonymi punktami na mapie.

Najedź kursorem aby zobaczyć nazwę stacji.

Kliknij aby zobaczyć obserwacje i prognozy pogody.

Aby zmienić mapę: kliknij na zielony przycisk z czarnym krzyżykiem, aby powiększyć; na zielony przycisk z myślnikiem, aby pomniejszyć; na zielone strzałki, aby przejść do map sąsiednich.


METAR-TAF: